createdAt,value
2023-04-29T00:02:15.413Z,1.46
2023-04-29T00:04:44.320Z,1.35
2023-04-29T00:07:11.830Z,1.38
2023-04-29T00:09:38.996Z,1.63
2023-04-29T00:12:06.100Z,1.30
2023-04-29T00:14:33.190Z,1.31
2023-04-29T00:17:00.293Z,1.28
2023-04-29T00:19:27.458Z,1.23
2023-04-29T00:21:56.088Z,1.22
2023-04-29T00:24:23.448Z,1.14
2023-04-29T00:26:50.590Z,1.49
2023-04-29T00:29:17.849Z,1.51
2023-04-29T00:31:44.948Z,1.53
2023-04-29T00:34:12.250Z,1.36
2023-04-29T00:36:39.391Z,1.31
2023-04-29T00:39:07.996Z,1.50
2023-04-29T00:41:35.433Z,1.36
2023-04-29T00:44:02.650Z,1.54
2023-04-29T00:46:29.814Z,1.68
2023-04-29T00:48:57.517Z,1.68
2023-04-29T00:51:25.252Z,1.75
2023-04-29T00:53:52.732Z,1.61
2023-04-29T00:56:21.861Z,1.86
2023-04-29T00:58:49.525Z,1.52
2023-04-29T01:01:19.051Z,1.59
2023-04-29T01:03:47.045Z,1.63
2023-04-29T01:06:27.149Z,1.53
2023-04-29T01:09:18.666Z,1.53
2023-04-29T01:12:01.906Z,1.67
2023-04-29T01:14:30.469Z,1.67
2023-04-29T01:17:05.816Z,1.74
2023-04-29T01:19:43.910Z,1.70
2023-04-29T01:22:10.926Z,1.58
2023-04-29T01:24:39.489Z,1.84
2023-04-29T01:27:21.429Z,2.29
2023-04-29T01:29:59.112Z,2.68
2023-04-29T01:32:37.409Z,2.59
2023-04-29T01:35:18.135Z,2.42
2023-04-29T01:37:56.488Z,2.54
2023-04-29T01:40:31.028Z,2.47
2023-04-29T01:43:02.108Z,2.41
2023-04-29T01:45:32.309Z,2.43
2023-04-29T01:48:01.059Z,2.43
2023-04-29T01:50:28.455Z,2.58
2023-04-29T01:52:55.568Z,2.23
2023-04-29T01:55:24.649Z,3.17
2023-04-29T01:57:51.937Z,3.04
2023-04-29T02:00:19.158Z,3.63
2023-04-29T02:02:46.408Z,3.42
2023-04-29T02:05:13.838Z,2.97
2023-04-29T02:07:40.939Z,3.26
2023-04-29T02:10:09.196Z,2.64
2023-04-29T02:12:37.772Z,2.72
2023-04-29T02:15:06.035Z,2.25
2023-04-29T02:17:34.475Z,2.15
2023-04-29T02:20:01.643Z,2.05
2023-04-29T02:22:28.737Z,2.02
2023-04-29T02:24:55.865Z,1.91
2023-04-29T02:27:23.136Z,1.74
2023-04-29T02:29:52.117Z,1.56
2023-04-29T02:32:19.455Z,1.59
2023-04-29T02:34:47.009Z,1.51
2023-04-29T02:37:14.159Z,1.32
2023-04-29T02:39:41.473Z,1.57
2023-04-29T02:42:08.611Z,1.28
2023-04-29T02:44:35.777Z,1.31
2023-04-29T02:47:04.374Z,1.36
2023-04-29T02:49:31.694Z,1.42
2023-04-29T02:51:58.854Z,1.34
2023-04-29T02:54:26.135Z,1.43
2023-04-29T02:56:53.225Z,1.40
2023-04-29T02:59:20.333Z,1.33
2023-04-29T03:01:47.499Z,1.36
2023-04-29T03:04:16.538Z,1.13
2023-04-29T03:06:43.803Z,1.33
2023-04-29T03:09:10.955Z,1.34
2023-04-29T03:11:38.159Z,1.43
2023-04-29T03:14:05.362Z,1.41
2023-04-29T03:16:32.867Z,1.34
2023-04-29T03:19:00.095Z,1.33
2023-04-29T03:21:28.738Z,1.40
2023-04-29T03:23:56.015Z,1.37
2023-04-29T03:26:23.198Z,1.43
2023-04-29T03:28:50.531Z,1.38
2023-04-29T03:31:17.782Z,1.94
2023-04-29T03:33:44.929Z,1.76
2023-04-29T03:36:12.071Z,1.71
2023-04-29T03:38:40.824Z,1.38
2023-04-29T03:41:07.995Z,1.51
2023-04-29T03:43:35.367Z,1.80
2023-04-29T03:46:02.476Z,1.55
2023-04-29T03:48:29.536Z,1.30
2023-04-29T03:50:56.750Z,1.19
2023-04-29T03:53:24.208Z,1.04
2023-04-29T03:55:52.746Z,1.03
2023-04-29T03:58:19.784Z,1.05
2023-04-29T04:00:46.987Z,1.03
2023-04-29T04:03:14.210Z,1.10
2023-04-29T04:05:41.402Z,1.00
2023-04-29T04:08:08.465Z,0.97
2023-04-29T04:10:35.585Z,0.94
2023-04-29T04:13:04.228Z,1.00
2023-04-29T04:15:31.366Z,1.09
2023-04-29T04:17:58.515Z,1.06
2023-04-29T04:20:25.751Z,1.05
2023-04-29T04:22:52.957Z,1.09
2023-04-29T04:25:20.064Z,0.85
2023-04-29T04:27:47.366Z,1.17
2023-04-29T04:30:16.144Z,0.74
2023-04-29T04:32:43.260Z,0.96
2023-04-29T04:35:10.449Z,0.91
2023-04-29T04:37:37.570Z,0.89
2023-04-29T04:40:05.828Z,0.91
2023-04-29T04:42:32.993Z,0.87
2023-04-29T04:45:00.044Z,0.87
2023-04-29T04:47:28.644Z,1.05
2023-04-29T04:49:56.046Z,0.80
2023-04-29T04:52:23.396Z,0.87
2023-04-29T04:54:50.563Z,0.80
2023-04-29T04:57:17.596Z,0.93
2023-04-29T04:59:44.709Z,0.76
2023-04-29T05:02:11.939Z,0.75
2023-04-29T05:04:40.453Z,0.72
2023-04-29T05:07:07.554Z,0.74
2023-04-29T05:09:34.817Z,0.73
2023-04-29T05:12:01.911Z,0.74
2023-04-29T05:14:29.691Z,0.62
2023-04-29T05:16:59.730Z,0.78
2023-04-29T05:19:26.974Z,0.97
2023-04-29T05:21:55.610Z,0.70
2023-04-29T05:24:22.755Z,0.79
2023-04-29T05:26:50.024Z,0.80
2023-04-29T05:29:17.188Z,0.88
2023-04-29T05:31:44.479Z,0.78
2023-04-29T05:34:11.621Z,0.76
2023-04-29T05:36:38.758Z,0.81
2023-04-29T05:39:07.331Z,0.70
2023-04-29T05:41:34.454Z,0.67
2023-04-29T05:44:01.670Z,0.62
2023-04-29T05:46:28.875Z,0.67
2023-04-29T05:48:55.991Z,0.55
2023-04-29T05:51:23.447Z,0.68
2023-04-29T05:53:50.549Z,0.62
2023-04-29T05:56:19.030Z,0.72
2023-04-29T05:58:46.296Z,0.68
2023-04-29T06:01:13.413Z,0.69
2023-04-29T06:03:40.706Z,0.73
2023-04-29T06:06:08.211Z,0.65
2023-04-29T06:08:35.540Z,0.90
2023-04-29T06:11:02.734Z,0.82
2023-04-29T06:13:32.414Z,0.69
2023-04-29T06:15:59.713Z,0.88
2023-04-29T06:18:26.795Z,0.93
2023-04-29T06:20:53.931Z,0.87
2023-04-29T06:23:21.008Z,0.88
2023-04-29T06:25:48.172Z,0.83
2023-04-29T06:28:15.253Z,0.90
2023-04-29T06:30:43.774Z,0.83
2023-04-29T06:33:10.894Z,0.97
2023-04-29T06:35:39.932Z,0.88
2023-04-29T06:38:07.132Z,1.04
2023-04-29T06:40:34.293Z,1.06
2023-04-29T06:43:01.591Z,1.00
2023-04-29T06:45:28.712Z,0.93
2023-04-29T06:47:57.343Z,0.98
2023-04-29T06:50:24.572Z,1.08
2023-04-29T06:52:51.654Z,0.93
2023-04-29T06:55:18.717Z,1.12
2023-04-29T06:57:45.853Z,1.10
2023-04-29T07:00:13.929Z,1.08
2023-04-29T07:02:41.041Z,1.19
2023-04-29T07:05:10.559Z,1.12
2023-04-29T07:07:37.593Z,1.09
2023-04-29T07:10:05.621Z,1.36
2023-04-29T07:12:32.696Z,1.12
2023-04-29T07:14:59.929Z,1.02
2023-04-29T07:17:30.092Z,0.98
2023-04-29T07:19:57.411Z,0.95
2023-04-29T07:22:25.927Z,0.94
2023-04-29T07:24:54.408Z,0.93
2023-04-29T07:27:21.844Z,1.06
2023-04-29T07:29:48.914Z,1.09
2023-04-29T07:32:16.238Z,1.42
2023-04-29T07:34:43.496Z,1.14
2023-04-29T07:37:10.610Z,1.18
2023-04-29T07:39:39.212Z,1.03
2023-04-29T07:42:06.395Z,1.14
2023-04-29T07:44:33.600Z,1.10
2023-04-29T07:47:00.716Z,1.00
2023-04-29T07:49:27.997Z,1.02
2023-04-29T07:51:55.151Z,1.02
2023-04-29T07:54:22.301Z,1.01
2023-04-29T07:56:50.809Z,1.00
2023-04-29T07:59:18.021Z,1.02
2023-04-29T08:01:45.376Z,1.00
2023-04-29T08:04:12.657Z,0.95
2023-04-29T08:06:40.172Z,0.82
2023-04-29T08:09:07.536Z,0.90
2023-04-29T08:11:34.823Z,0.77
2023-04-29T08:14:03.348Z,0.83
2023-04-29T08:16:30.723Z,0.74
2023-04-29T08:18:58.229Z,0.77
2023-04-29T08:21:25.660Z,0.56
2023-04-29T08:23:52.714Z,0.65
2023-04-29T08:26:19.962Z,0.70
2023-04-29T08:28:47.249Z,0.72
2023-04-29T08:31:18.863Z,0.64
2023-04-29T08:33:46.308Z,0.62
2023-04-29T08:36:13.489Z,0.63
2023-04-29T08:38:41.134Z,0.79
2023-04-29T08:41:09.162Z,0.59
2023-04-29T08:43:36.772Z,0.65
2023-04-29T08:46:04.370Z,0.58
2023-04-29T08:48:34.086Z,0.74
2023-04-29T08:51:01.656Z,0.72
2023-04-29T08:53:28.891Z,0.74
2023-04-29T08:56:01.199Z,0.56
2023-04-29T08:58:30.119Z,0.69
2023-04-29T09:00:57.720Z,0.62
2023-04-29T09:03:30.400Z,0.69
2023-04-29T09:06:01.390Z,0.72
2023-04-29T09:08:30.160Z,0.87
2023-04-29T09:10:59.666Z,0.72
2023-04-29T09:13:28.791Z,0.66
2023-04-29T09:15:56.290Z,0.79
2023-04-29T09:18:42.988Z,0.80
2023-04-29T09:21:17.095Z,0.77
2023-04-29T09:23:46.073Z,0.79
2023-04-29T09:26:13.616Z,0.73
2023-04-29T09:28:41.082Z,1.49
2023-04-29T09:31:08.195Z,1.18
2023-04-29T09:33:50.363Z,1.51
2023-04-29T09:36:36.477Z,0.90
2023-04-29T09:39:04.004Z,1.20
2023-04-29T09:41:31.354Z,1.19
2023-04-29T09:44:03.974Z,1.00
2023-04-29T09:46:32.369Z,1.20
2023-04-29T09:49:00.178Z,1.13
2023-04-29T09:51:27.420Z,1.10
2023-04-29T09:53:56.001Z,1.21
2023-04-29T09:56:23.135Z,1.07
2023-04-29T09:58:50.361Z,1.24
2023-04-29T10:01:20.574Z,1.06
2023-04-29T10:03:49.075Z,0.97
2023-04-29T10:06:17.532Z,0.89
2023-04-29T10:08:46.680Z,0.87
2023-04-29T10:11:18.129Z,0.93
2023-04-29T10:13:46.148Z,0.80
2023-04-29T10:16:28.094Z,0.75
2023-04-29T10:18:59.971Z,0.73
2023-04-29T10:21:29.462Z,1.01
2023-04-29T10:23:58.428Z,0.68
2023-04-29T10:26:29.805Z,0.67
2023-04-29T10:28:58.372Z,0.71
2023-04-29T10:31:26.915Z,0.73
2023-04-29T10:33:56.952Z,0.88
2023-04-29T10:36:25.392Z,0.56
2023-04-29T10:38:57.315Z,1.06
2023-04-29T10:41:43.750Z,0.51
2023-04-29T10:44:10.949Z,0.66
2023-04-29T10:46:38.374Z,0.69
2023-04-29T10:49:07.451Z,0.54
2023-04-29T10:51:39.844Z,0.69
2023-04-29T10:54:09.739Z,0.59
2023-04-29T10:56:51.013Z,0.65
2023-04-29T10:59:42.447Z,0.91
2023-04-29T11:02:11.134Z,0.72
2023-04-29T11:05:07.315Z,0.71
2023-04-29T11:07:34.571Z,0.85
2023-04-29T11:10:03.224Z,0.85
2023-04-29T11:12:31.958Z,0.88
2023-04-29T11:14:59.323Z,0.78
2023-04-29T11:17:28.354Z,0.95
2023-04-29T11:19:55.997Z,0.68
2023-04-29T11:22:28.441Z,0.88
2023-04-29T11:24:57.965Z,0.91
2023-04-29T11:27:27.454Z,0.91
2023-04-29T11:29:59.784Z,0.76
2023-04-29T11:32:29.095Z,0.81
2023-04-29T11:35:07.715Z,0.72
2023-04-29T11:37:36.003Z,0.72
2023-04-29T11:40:03.174Z,0.58
2023-04-29T11:42:30.391Z,0.80
2023-04-29T11:44:58.915Z,0.88
2023-04-29T11:47:29.668Z,0.81
2023-04-29T11:50:07.859Z,0.81
2023-04-29T11:52:37.253Z,0.71
2023-04-29T11:55:05.618Z,0.64
2023-04-29T11:57:33.071Z,0.85
2023-04-29T12:00:02.207Z,0.72
2023-04-29T12:02:30.098Z,0.81
2023-04-29T12:04:58.158Z,0.84
2023-04-29T12:07:25.745Z,0.67
2023-04-29T12:09:53.166Z,0.67
2023-04-29T12:12:20.386Z,0.91
2023-04-29T12:14:48.636Z,1.00
2023-04-29T12:17:18.249Z,0.79
2023-04-29T12:19:46.288Z,0.86
2023-04-29T12:22:13.374Z,0.85
2023-04-29T12:24:40.640Z,0.97
2023-04-29T12:27:10.343Z,0.93
2023-04-29T12:29:38.957Z,0.86
2023-04-29T12:32:06.108Z,0.84
2023-04-29T12:34:34.952Z,0.73
2023-04-29T12:37:04.330Z,0.84
2023-04-29T12:39:32.605Z,0.81
2023-04-29T12:42:01.045Z,0.74
2023-04-29T12:44:35.639Z,0.73
2023-04-29T12:47:10.452Z,0.65
2023-04-29T12:49:42.458Z,0.80
2023-04-29T12:52:09.885Z,0.78
2023-04-29T12:54:37.924Z,0.71
2023-04-29T12:57:05.228Z,0.94
2023-04-29T12:59:32.625Z,0.89
2023-04-29T13:01:59.754Z,0.80
2023-04-29T13:04:26.961Z,0.92
2023-04-29T13:06:55.806Z,0.80
2023-04-29T13:09:23.105Z,0.85
2023-04-29T13:11:50.233Z,1.07
2023-04-29T13:14:17.505Z,1.08
2023-04-29T13:16:44.709Z,0.97
2023-04-29T13:19:30.026Z,0.86
2023-04-29T13:22:00.529Z,1.14
2023-04-29T13:24:27.971Z,0.98
2023-04-29T13:26:55.249Z,0.84
2023-04-29T13:29:24.008Z,0.91
2023-04-29T13:31:51.521Z,0.87
2023-04-29T13:34:18.769Z,0.89
2023-04-29T13:36:46.044Z,0.95
2023-04-29T13:39:15.172Z,0.85
2023-04-29T13:41:45.784Z,1.02
2023-04-29T13:46:44.420Z,0.84
2023-04-29T13:49:38.380Z,0.71
2023-04-29T13:59:40.217Z,0.77
2023-04-29T14:02:24.312Z,0.84
2023-04-29T14:04:53.879Z,0.82
2023-04-29T14:07:21.437Z,0.91
2023-04-29T14:09:50.124Z,0.75
2023-04-29T14:12:17.245Z,0.94
2023-04-29T14:14:44.499Z,0.83
2023-04-29T14:17:11.672Z,0.91
2023-04-29T14:19:38.710Z,0.97
2023-04-29T14:22:05.875Z,1.09
2023-04-29T14:24:33.089Z,1.00
2023-04-29T14:27:01.672Z,1.11
2023-04-29T14:29:28.920Z,1.04
2023-04-29T14:31:56.231Z,1.03
2023-04-29T14:34:23.695Z,0.93
2023-04-29T14:36:50.896Z,0.87
2023-04-29T14:39:18.078Z,0.90
2023-04-29T14:41:45.231Z,0.84
2023-04-29T14:44:13.975Z,0.83
2023-04-29T14:46:41.332Z,0.90
2023-04-29T14:49:08.409Z,1.32
2023-04-29T14:51:35.711Z,1.04
2023-04-29T14:54:02.828Z,0.85
2023-04-29T14:56:30.189Z,0.91
2023-04-29T14:58:57.437Z,1.04
2023-04-29T15:01:26.263Z,1.15
2023-04-29T15:03:53.820Z,0.86
2023-04-29T15:06:21.191Z,0.89
2023-04-29T15:08:48.432Z,0.97
2023-04-29T15:11:16.350Z,1.10
2023-04-29T15:13:43.543Z,1.14
2023-04-29T15:16:10.936Z,1.20
2023-04-29T15:18:39.573Z,0.95
2023-04-29T15:21:06.834Z,0.99
2023-04-29T15:23:34.054Z,1.01
2023-04-29T15:26:01.263Z,1.03
2023-04-29T15:28:30.740Z,1.21
2023-04-29T15:31:00.210Z,1.18
2023-04-29T15:33:27.943Z,1.28
2023-04-29T15:35:57.553Z,1.04
2023-04-29T15:38:25.483Z,1.02
2023-04-29T15:40:52.925Z,1.34
2023-04-29T15:43:21.641Z,1.39
2023-04-29T15:45:50.041Z,1.43
2023-04-29T15:48:17.182Z,1.29
2023-04-29T15:50:44.355Z,1.40
2023-04-29T15:53:13.100Z,1.52
2023-04-29T15:55:40.253Z,1.65
2023-04-29T15:58:07.607Z,1.65
2023-04-29T16:00:34.907Z,1.52
2023-04-29T16:03:02.273Z,1.18
2023-04-29T16:05:29.651Z,1.34
2023-04-29T16:07:56.734Z,1.44
2023-04-29T16:10:25.244Z,1.16
2023-04-29T16:12:52.392Z,1.15
2023-04-29T16:15:19.541Z,1.05
2023-04-29T16:17:46.764Z,1.22
2023-04-29T16:20:14.346Z,1.20
2023-04-29T16:22:41.793Z,1.18
2023-04-29T16:25:09.834Z,1.11
2023-04-29T16:27:38.652Z,1.25
2023-04-29T16:30:07.437Z,1.40
2023-04-29T16:32:34.557Z,1.18
2023-04-29T16:35:02.141Z,1.22
2023-04-29T16:37:29.598Z,1.16
2023-04-29T16:39:56.700Z,1.14
2023-04-29T16:42:23.817Z,1.07
2023-04-29T16:44:52.384Z,1.04
2023-04-29T16:47:20.124Z,0.96
2023-04-29T16:49:48.038Z,1.15
2023-04-29T16:52:15.530Z,1.15
2023-04-29T16:54:43.358Z,1.01
2023-04-29T16:57:10.662Z,1.27
2023-04-29T16:59:37.877Z,1.32
2023-04-29T17:02:07.024Z,1.30
2023-04-29T17:04:34.522Z,1.16
2023-04-29T17:07:01.997Z,1.28
2023-04-29T17:09:29.242Z,1.25
2023-04-29T17:11:56.317Z,1.13
2023-04-29T17:14:23.633Z,1.24
2023-04-29T17:16:50.730Z,1.52
2023-04-29T17:19:19.795Z,1.27
2023-04-29T17:21:47.690Z,1.35
2023-04-29T17:24:14.851Z,1.40
2023-04-29T17:26:42.032Z,1.46
2023-04-29T17:29:09.291Z,1.27
2023-04-29T17:31:36.501Z,1.23
2023-04-29T17:34:03.730Z,1.62
2023-04-29T17:36:32.264Z,1.30
2023-04-29T17:38:59.310Z,1.31
2023-04-29T17:41:26.478Z,1.11
2023-04-29T17:43:53.619Z,0.99
2023-04-29T17:46:20.790Z,1.41
2023-04-29T17:48:48.167Z,1.14
2023-04-29T17:51:15.238Z,1.13
2023-04-29T17:53:43.953Z,1.19
2023-04-29T17:56:11.023Z,1.19
2023-04-29T17:58:38.257Z,1.13
2023-04-29T18:01:05.797Z,1.10
2023-04-29T18:03:33.103Z,1.25
2023-04-29T18:06:00.434Z,1.68
2023-04-29T18:08:28.847Z,1.37
2023-04-29T18:10:57.538Z,1.65
2023-04-29T18:13:27.110Z,1.47
2023-04-29T18:15:54.539Z,1.70
2023-04-29T18:18:21.699Z,2.12
2023-04-29T18:20:48.758Z,2.08
2023-04-29T18:23:43.050Z,1.57
2023-04-29T18:26:39.126Z,1.94
2023-04-29T18:29:24.377Z,2.47
2023-04-29T18:31:51.918Z,2.58
2023-04-29T18:34:48.242Z,2.25
2023-04-29T18:37:22.448Z,2.03
2023-04-29T18:40:26.630Z,2.53
2023-04-29T18:43:39.720Z,2.90
2023-04-29T18:46:47.258Z,3.07
2023-04-29T18:50:04.152Z,3.60
2023-04-29T18:52:46.462Z,2.93
2023-04-29T18:55:13.685Z,3.09
2023-04-29T18:57:40.990Z,2.71
2023-04-29T19:00:12.900Z,2.86
2023-04-29T19:02:40.178Z,3.18
2023-04-29T19:05:08.590Z,3.08
2023-04-29T19:07:35.694Z,2.71
2023-04-29T19:10:03.254Z,3.47
2023-04-29T19:12:30.354Z,2.67
2023-04-29T19:14:57.427Z,3.06
2023-04-29T19:17:26.154Z,3.28
2023-04-29T19:19:53.774Z,3.49
2023-04-29T19:22:21.293Z,2.98
2023-04-29T19:24:48.393Z,3.03
2023-04-29T19:27:15.476Z,2.63
2023-04-29T19:29:42.514Z,2.79
2023-04-29T19:32:09.673Z,2.46
2023-04-29T19:34:38.355Z,2.69
2023-04-29T19:37:05.625Z,4.72
2023-04-29T19:39:32.855Z,4.26
2023-04-29T19:42:00.108Z,3.98
2023-04-29T19:44:27.236Z,3.39
2023-04-29T19:46:54.358Z,2.50
2023-04-29T19:49:21.636Z,2.07
2023-04-29T19:51:50.284Z,2.28
2023-04-29T19:54:17.723Z,2.38
2023-04-29T19:56:44.839Z,2.43
2023-04-29T19:59:11.984Z,2.12
2023-04-29T20:01:39.345Z,2.42
2023-04-29T20:04:06.629Z,2.38
2023-04-29T20:06:34.229Z,1.87
2023-04-29T20:09:05.241Z,2.37
2023-04-29T20:11:37.422Z,1.86
2023-04-29T20:14:06.272Z,1.78
2023-04-29T20:16:34.005Z,1.94
2023-04-29T20:19:01.808Z,1.74
2023-04-29T20:21:29.668Z,1.88
2023-04-29T20:23:57.040Z,1.83
2023-04-29T20:26:26.403Z,2.07
2023-04-29T20:28:53.929Z,2.27
2023-04-29T20:31:21.192Z,2.45
2023-04-29T20:33:52.186Z,2.28
2023-04-29T20:36:19.341Z,2.05
2023-04-29T20:38:46.465Z,2.01
2023-04-29T20:41:13.588Z,2.09
2023-04-29T20:43:42.199Z,2.18
2023-04-29T20:46:09.396Z,2.12
2023-04-29T20:48:36.560Z,2.22
2023-04-29T20:51:04.091Z,2.15
2023-04-29T20:53:31.158Z,2.28
2023-04-29T20:55:58.279Z,2.34
2023-04-29T20:58:25.338Z,2.36
2023-04-29T21:00:53.983Z,2.26
2023-04-29T21:03:21.298Z,2.25
2023-04-29T21:06:20.829Z,2.29
2023-04-29T21:09:08.556Z,2.51
2023-04-29T21:18:56.289Z,3.62
2023-04-29T21:22:42.948Z,3.58
2023-04-29T21:25:29.703Z,3.69
2023-04-29T21:39:28.854Z,3.02
2023-04-29T21:42:18.325Z,2.82
2023-04-29T21:44:49.692Z,3.31
2023-04-29T21:47:17.732Z,3.36
2023-04-29T21:49:45.363Z,2.98
2023-04-29T21:52:13.060Z,3.10
2023-04-29T21:54:42.341Z,3.62
2023-04-29T21:57:09.539Z,3.94
2023-04-29T21:59:36.745Z,3.79
2023-04-29T22:02:05.019Z,3.16
2023-04-29T22:04:32.252Z,3.15
2023-04-29T22:06:59.415Z,2.60
2023-04-29T22:09:26.542Z,2.70
2023-04-29T22:11:55.076Z,2.47
2023-04-29T22:14:22.440Z,2.46
2023-04-29T22:16:49.771Z,2.78
2023-04-29T22:19:16.982Z,2.76
2023-04-29T22:21:44.093Z,2.67
2023-04-29T22:24:11.626Z,2.95
2023-04-29T22:26:39.756Z,3.07
2023-04-29T22:29:08.494Z,3.00
2023-04-29T22:31:35.850Z,2.59
2023-04-29T22:34:03.069Z,2.61
2023-04-29T22:36:30.236Z,2.66
2023-04-29T22:38:57.396Z,2.80
2023-04-29T22:41:24.715Z,2.76
2023-04-29T22:43:51.784Z,3.06
2023-04-29T22:46:20.474Z,3.14
2023-04-29T22:48:47.626Z,3.09
2023-04-29T22:51:14.960Z,2.75
2023-04-29T22:53:42.158Z,2.86
2023-04-29T22:56:09.397Z,2.83
2023-04-29T22:58:36.537Z,3.18
2023-04-29T23:01:03.776Z,3.14
2023-04-29T23:03:32.401Z,3.24
2023-04-29T23:06:00.545Z,3.04
2023-04-29T23:08:27.910Z,3.14
2023-04-29T23:10:55.200Z,3.38
2023-04-29T23:13:22.354Z,3.22
2023-04-29T23:15:49.612Z,3.28
2023-04-29T23:18:16.817Z,3.84
2023-04-29T23:20:48.096Z,3.55
2023-04-29T23:23:15.336Z,3.49
2023-04-29T23:25:42.482Z,3.61
2023-04-29T23:28:09.708Z,3.78
2023-04-29T23:30:36.900Z,3.99
2023-04-29T23:33:04.369Z,3.97
2023-04-29T23:35:31.636Z,4.17
2023-04-29T23:38:00.253Z,4.24
2023-04-29T23:40:27.440Z,4.06
2023-04-29T23:42:54.541Z,4.08
2023-04-29T23:45:21.784Z,3.96
2023-04-29T23:47:49.051Z,4.51
2023-04-29T23:50:16.735Z,4.37
2023-04-29T23:52:43.837Z,4.29
2023-04-29T23:55:12.652Z,4.32
2023-04-29T23:57:40.078Z,4.05
